createdAt,value
2022-09-23T00:01:48.933Z,98805.28
2022-09-23T00:04:50.530Z,98804.38
2022-09-23T00:07:52.321Z,98807.00
2022-09-23T00:10:55.966Z,98801.59
2022-09-23T00:13:58.838Z,98805.19
2022-09-23T00:17:00.766Z,98799.72
2022-09-23T00:20:04.971Z,98799.91
2022-09-23T00:23:06.962Z,98796.56
2022-09-23T00:26:11.314Z,98796.84
2022-09-23T00:29:12.768Z,98785.34
2022-09-23T00:32:14.848Z,98785.34
2022-09-23T00:35:16.415Z,98785.47
2022-09-23T00:38:18.180Z,98788.44
2022-09-23T00:41:21.398Z,98786.34
2022-09-23T00:44:43.418Z,98782.16
2022-09-23T00:47:47.525Z,98778.78
2022-09-23T00:50:51.009Z,98775.06
2022-09-23T00:53:52.713Z,98773.31
2022-09-23T00:56:56.530Z,98770.91
2022-09-23T00:59:58.019Z,98769.41
2022-09-23T01:03:00.323Z,98764.44
2022-09-23T01:06:01.874Z,98759.47
2022-09-23T01:09:03.933Z,98756.25
2022-09-23T01:12:15.254Z,98759.88
2022-09-23T01:15:19.879Z,98764.53
2022-09-23T01:18:27.380Z,98757.53
2022-09-23T01:21:35.526Z,98755.91
2022-09-23T01:24:48.084Z,98753.22
2022-09-23T01:27:57.809Z,98749.69
2022-09-23T01:31:05.530Z,98742.72
2022-09-23T01:34:11.113Z,98743.44
2022-09-23T01:37:20.927Z,98738.72
2022-09-23T01:40:26.223Z,98741.97
2022-09-23T01:43:31.916Z,98733.91
2022-09-23T01:46:41.017Z,98735.63
2022-09-23T01:49:45.267Z,98736.56
2022-09-23T01:52:47.315Z,98734.84
2022-09-23T01:55:50.788Z,98725.91
2022-09-23T01:58:56.980Z,98725.25
2022-09-23T02:02:03.814Z,98728.00
2022-09-23T02:05:08.612Z,98731.53
2022-09-23T02:08:14.715Z,98717.44
2022-09-23T02:11:18.257Z,98727.41
2022-09-23T02:14:22.477Z,98721.31
2022-09-23T02:17:28.938Z,98722.22
2022-09-23T02:20:33.614Z,98719.50
2022-09-23T02:23:40.823Z,98713.38
2022-09-23T02:26:47.351Z,98719.56
2022-09-23T02:29:53.991Z,98717.22
2022-09-23T02:33:04.274Z,98715.59
2022-09-23T02:36:09.226Z,98714.09
2022-09-23T02:39:12.803Z,98715.84
2022-09-23T02:42:17.955Z,98708.81
2022-09-23T02:45:19.719Z,98709.00
2022-09-23T02:48:24.405Z,98710.88
2022-09-23T02:51:26.038Z,98707.28
2022-09-23T02:54:30.996Z,98710.94
2022-09-23T02:57:32.879Z,98703.00
2022-09-23T03:00:39.467Z,98709.19
2022-09-23T03:03:46.457Z,98698.50
2022-09-23T03:06:52.660Z,98702.06
2022-09-23T03:09:57.367Z,98702.13
2022-09-23T03:13:05.763Z,98699.50
2022-09-23T03:16:12.433Z,98690.72
2022-09-23T03:19:22.956Z,98702.13
2022-09-23T03:22:28.137Z,98691.59
2022-09-23T03:25:31.868Z,98694.44
2022-09-23T03:28:36.135Z,98694.50
2022-09-23T03:31:42.519Z,98690.84
2022-09-23T03:34:47.496Z,98692.53
2022-09-23T03:37:53.464Z,98696.03
2022-09-23T03:40:55.912Z,98684.66
2022-09-23T03:43:58.470Z,98689.19
2022-09-23T03:47:02.458Z,98676.88
2022-09-23T03:50:08.348Z,98681.50
2022-09-23T03:53:12.062Z,98668.44
2022-09-23T03:56:13.728Z,98665.94
2022-09-23T03:59:16.136Z,98665.88
2022-09-23T04:02:18.170Z,98656.19
2022-09-23T04:05:21.846Z,98656.25
2022-09-23T04:08:23.372Z,98646.69
2022-09-23T04:11:24.981Z,98649.66
2022-09-23T04:14:26.469Z,98641.94
2022-09-23T04:17:31.361Z,98642.69
2022-09-23T04:20:34.621Z,98646.22
2022-09-23T04:23:36.140Z,98633.03
2022-09-23T04:26:38.549Z,98633.19
2022-09-23T04:29:39.989Z,98623.50
2022-09-23T04:32:42.177Z,98621.59
2022-09-23T04:35:49.551Z,98629.34
2022-09-23T04:38:51.255Z,98620.28
2022-09-23T04:41:53.427Z,98619.16
2022-09-23T04:44:54.992Z,98621.81
2022-09-23T04:47:58.492Z,98616.50
2022-09-23T04:51:04.382Z,98617.56
2022-09-23T04:54:08.952Z,98622.00
2022-09-23T04:57:11.137Z,98614.19
2022-09-23T05:00:15.159Z,98625.06
2022-09-23T05:03:17.128Z,98625.28
2022-09-23T05:06:20.631Z,98619.97
2022-09-23T05:09:22.100Z,98613.63
2022-09-23T05:12:23.570Z,98623.34
2022-09-23T05:15:29.875Z,98617.91
2022-09-23T05:18:37.937Z,98618.63
2022-09-23T05:21:44.949Z,98610.56
2022-09-23T05:24:46.699Z,98617.56
2022-09-23T05:27:48.176Z,98618.50
2022-09-23T05:30:49.662Z,98613.91
2022-09-23T05:33:53.970Z,98613.03
2022-09-23T05:36:58.621Z,98620.09
2022-09-23T05:40:00.186Z,98609.38
2022-09-23T05:43:01.687Z,98619.75
2022-09-23T05:46:07.830Z,98608.91
2022-09-23T05:49:10.037Z,98618.53
2022-09-23T05:52:13.070Z,98612.22
2022-09-23T05:55:15.081Z,98608.63
2022-09-23T05:58:16.858Z,98606.81
2022-09-23T06:01:21.503Z,98608.44
2022-09-23T06:04:23.080Z,98605.00
2022-09-23T06:07:26.486Z,98606.72
2022-09-23T06:10:28.505Z,98604.84
2022-09-23T06:13:30.078Z,98604.00
2022-09-23T06:16:32.323Z,98610.19
2022-09-23T06:19:34.229Z,98604.78
2022-09-23T06:22:39.792Z,98607.31
2022-09-23T06:25:41.764Z,98606.59
2022-09-23T06:28:44.491Z,98605.72
2022-09-23T06:31:49.357Z,98605.00
2022-09-23T06:34:52.161Z,98603.31
2022-09-23T06:37:55.215Z,98605.06
2022-09-23T06:40:57.465Z,98608.56
2022-09-23T06:43:59.118Z,98613.88
2022-09-23T06:47:03.259Z,98608.50
2022-09-23T06:50:05.138Z,98608.44
2022-09-23T06:53:08.186Z,98612.72
2022-09-23T06:56:11.321Z,98609.06
2022-09-23T06:59:17.187Z,98606.38
2022-09-23T07:02:18.920Z,98608.75
2022-09-23T07:05:22.401Z,98608.47
2022-09-23T07:08:27.236Z,98607.25
2022-09-23T07:11:28.823Z,98613.03
2022-09-23T07:14:33.291Z,98607.25
2022-09-23T07:17:35.192Z,98607.53
2022-09-23T07:20:36.684Z,98606.28
2022-09-23T07:23:39.659Z,98604.13
2022-09-23T07:26:45.559Z,98611.44
2022-09-23T07:29:49.008Z,98610.81
2022-09-23T07:32:50.642Z,98606.63
2022-09-23T07:35:52.419Z,98603.50
2022-09-23T07:39:03.755Z,98608.28
2022-09-23T07:42:05.797Z,98600.84
2022-09-23T07:45:09.247Z,98601.44
2022-09-23T07:48:11.521Z,98596.81
2022-09-23T07:51:17.456Z,98594.94
2022-09-23T07:54:25.518Z,98592.16
2022-09-23T07:57:27.142Z,98594.75
2022-09-23T08:00:28.729Z,98593.03
2022-09-23T08:03:36.192Z,98599.88
2022-09-23T08:06:40.043Z,98592.81
2022-09-23T08:09:43.685Z,98605.41
2022-09-23T08:12:46.590Z,98595.16
2022-09-23T08:15:52.008Z,98601.66
2022-09-23T08:18:56.299Z,98594.84
2022-09-23T08:21:58.252Z,98596.69
2022-09-23T08:25:01.217Z,98599.47
2022-09-23T08:28:03.079Z,98601.53
2022-09-23T08:31:08.408Z,98603.91
2022-09-23T08:34:10.599Z,98597.16
2022-09-23T08:37:12.147Z,98597.84
2022-09-23T08:40:16.015Z,98592.44
2022-09-23T08:43:22.492Z,98593.91
2022-09-23T08:46:26.226Z,98591.94
2022-09-23T08:49:31.956Z,98588.69
2022-09-23T08:52:35.795Z,98598.00
2022-09-23T08:55:42.213Z,98594.16
2022-09-23T08:58:49.611Z,98601.59
2022-09-23T09:01:53.133Z,98601.13
2022-09-23T09:04:57.022Z,98587.84
2022-09-23T09:08:00.782Z,98597.00
2022-09-23T09:11:05.894Z,98591.34
2022-09-23T09:14:15.706Z,98588.56
2022-09-23T09:17:24.866Z,98586.56
2022-09-23T09:20:35.158Z,98582.84
2022-09-23T09:23:40.831Z,98588.56
2022-09-23T09:26:43.795Z,98587.44
2022-09-23T09:29:49.758Z,98575.53
2022-09-23T09:32:55.097Z,98576.88
2022-09-23T09:36:08.950Z,98572.47
2022-09-23T09:39:11.433Z,98570.91
2022-09-23T09:42:18.684Z,98576.09
2022-09-23T09:45:27.993Z,98565.28
2022-09-23T09:48:33.129Z,98560.88
2022-09-23T09:51:35.609Z,98563.31
2022-09-23T09:54:39.090Z,98559.22
2022-09-23T09:57:46.918Z,98554.53
2022-09-23T10:00:50.606Z,98554.13
2022-09-23T10:03:55.537Z,98555.63
2022-09-23T10:07:05.897Z,98555.75
2022-09-23T10:10:31.829Z,98547.09
2022-09-23T10:13:36.300Z,98539.31
2022-09-23T10:16:37.907Z,98535.25
2022-09-23T10:19:44.822Z,98537.09
2022-09-23T10:22:47.168Z,98534.63
2022-09-23T10:25:56.554Z,98536.16
2022-09-23T10:29:01.169Z,98526.31
2022-09-23T10:32:20.743Z,98526.69
2022-09-23T10:35:24.457Z,98519.91
2022-09-23T10:38:26.581Z,98525.84
2022-09-23T10:41:50.518Z,98524.88
2022-09-23T10:45:19.612Z,98511.53
2022-09-23T10:48:27.638Z,98519.88
2022-09-23T10:51:37.735Z,98513.06
2022-09-23T10:54:45.230Z,98511.72
2022-09-23T10:57:52.475Z,98512.78
2022-09-23T11:01:02.581Z,98507.94
2022-09-23T11:04:25.450Z,98520.78
2022-09-23T11:07:37.266Z,98507.03
2022-09-23T11:10:55.889Z,98507.59
2022-09-23T11:14:05.354Z,98512.28
2022-09-23T11:17:20.707Z,98508.50
2022-09-23T11:20:35.471Z,98508.75
2022-09-23T11:23:44.716Z,98501.06
2022-09-23T11:26:53.178Z,98502.63
2022-09-23T11:30:03.550Z,98497.03
2022-09-23T11:33:21.071Z,98500.44
2022-09-23T11:36:26.212Z,98489.06
2022-09-23T11:39:30.506Z,98487.31
2022-09-23T11:42:35.216Z,98485.69
2022-09-23T11:45:40.323Z,98482.34
2022-09-23T11:48:44.395Z,98473.44
2022-09-23T11:51:52.491Z,98474.00
2022-09-23T11:54:56.760Z,98480.13
2022-09-23T11:58:03.386Z,98477.97
2022-09-23T12:01:08.887Z,98464.00
2022-09-23T12:04:20.193Z,98471.75
2022-09-23T12:07:26.849Z,98471.44
2022-09-23T12:10:36.333Z,98460.50
2022-09-23T12:13:43.465Z,98458.44
2022-09-23T12:16:58.906Z,98457.47
2022-09-23T12:20:11.515Z,98445.00
2022-09-23T12:23:21.159Z,98450.38
2022-09-23T12:26:25.139Z,98444.59
2022-09-23T12:29:29.874Z,98443.53
2022-09-23T12:32:32.284Z,98432.66
2022-09-23T12:35:37.766Z,98434.06
2022-09-23T12:38:46.788Z,98428.38
2022-09-23T12:41:50.821Z,98431.28
2022-09-23T12:45:13.002Z,98430.75
2022-09-23T12:48:43.094Z,98431.63
2022-09-23T12:52:04.828Z,98415.56
2022-09-23T12:55:22.132Z,98420.88
2022-09-23T12:58:39.188Z,98410.28
2022-09-23T13:01:40.995Z,98409.31
2022-09-23T13:05:11.540Z,98408.28
2022-09-23T13:08:15.875Z,98413.22
2022-09-23T13:11:20.828Z,98407.84
2022-09-23T13:14:27.570Z,98405.69
2022-09-23T13:17:31.320Z,98402.03
2022-09-23T13:20:36.678Z,98396.53
2022-09-23T13:23:38.357Z,98405.03
2022-09-23T13:26:40.098Z,98402.13
2022-09-23T13:29:45.391Z,98398.25
2022-09-23T13:32:48.517Z,98403.31
2022-09-23T13:35:51.740Z,98398.06
2022-09-23T13:38:53.324Z,98389.53
2022-09-23T13:41:58.062Z,98381.53
2022-09-23T13:45:01.111Z,98382.09
2022-09-23T13:48:06.190Z,98384.81
2022-09-23T13:51:12.896Z,98382.78
2022-09-23T13:54:26.997Z,98388.16
2022-09-23T13:57:29.537Z,98383.91
2022-09-23T14:00:35.577Z,98384.78
2022-09-23T14:03:38.510Z,98385.00
2022-09-23T14:06:41.274Z,98381.34
2022-09-23T14:09:44.179Z,98385.34
2022-09-23T14:12:46.312Z,98373.41
2022-09-23T14:15:49.351Z,98361.78
2022-09-23T14:18:52.065Z,98362.66
2022-09-23T14:21:54.444Z,98361.97
2022-09-23T14:24:56.827Z,98365.75
2022-09-23T14:28:00.489Z,98357.81
2022-09-23T14:31:05.454Z,98350.72
2022-09-23T14:34:34.499Z,98353.50
2022-09-23T14:37:58.688Z,98348.03
2022-09-23T14:41:16.814Z,98351.56
2022-09-23T14:44:23.168Z,98345.22
2022-09-23T14:47:28.748Z,98342.41
2022-09-23T14:50:39.900Z,98341.34
2022-09-23T14:53:42.710Z,98335.97
2022-09-23T14:56:44.215Z,98333.38
2022-09-23T14:59:49.569Z,98333.38
2022-09-23T15:03:00.228Z,98337.59
2022-09-23T15:06:08.727Z,98327.38
2022-09-23T15:09:12.262Z,98329.44
2022-09-23T15:12:15.401Z,98321.78
2022-09-23T15:15:17.607Z,98324.16
2022-09-23T15:18:22.527Z,98326.44
2022-09-23T15:21:24.975Z,98326.75
2022-09-23T15:24:41.672Z,98329.09
2022-09-23T15:27:55.617Z,98322.22
2022-09-23T15:30:57.397Z,98321.78
2022-09-23T15:34:00.348Z,98315.88
2022-09-23T15:37:02.547Z,98316.22
2022-09-23T15:40:04.785Z,98312.97
2022-09-23T15:43:11.416Z,98320.28
2022-09-23T15:46:14.798Z,98317.91
2022-09-23T15:49:23.127Z,98313.59
2022-09-23T15:52:27.635Z,98313.81
2022-09-23T15:55:29.458Z,98312.31
2022-09-23T15:58:30.935Z,98308.81
2022-09-23T16:01:34.554Z,98316.97
2022-09-23T16:04:38.381Z,98305.59
2022-09-23T16:07:40.129Z,98308.38
2022-09-23T16:10:44.888Z,98309.47
2022-09-23T16:13:46.742Z,98309.63
2022-09-23T16:16:48.675Z,98316.94
2022-09-23T16:19:51.786Z,98310.06
2022-09-23T16:22:54.839Z,98311.22
2022-09-23T16:25:57.889Z,98310.47
2022-09-23T16:28:59.706Z,98305.44
2022-09-23T16:32:01.487Z,98301.19
2022-09-23T16:35:08.520Z,98303.34
2022-09-23T16:38:10.718Z,98297.41
2022-09-23T16:41:14.606Z,98302.25
2022-09-23T16:44:16.400Z,98300.63
2022-09-23T16:47:17.909Z,98293.81
2022-09-23T16:50:22.689Z,98298.53
2022-09-23T16:53:25.524Z,98299.72
2022-09-23T16:56:28.900Z,98292.81
2022-09-23T16:59:50.983Z,98290.44
2022-09-23T17:03:10.853Z,98296.94
2022-09-23T17:06:14.271Z,98299.94
2022-09-23T17:09:16.541Z,98297.47
2022-09-23T17:12:22.243Z,98295.06
2022-09-23T17:15:24.001Z,98292.69
2022-09-23T17:18:26.266Z,98298.34
2022-09-23T17:21:29.382Z,98301.97
2022-09-23T17:24:30.890Z,98303.06
2022-09-23T17:27:32.932Z,98298.75
2022-09-23T17:30:34.542Z,98305.19
2022-09-23T17:33:38.927Z,98309.75
2022-09-23T17:36:41.964Z,98300.09
2022-09-23T17:39:43.738Z,98307.28
2022-09-23T17:42:45.431Z,98300.09
2022-09-23T17:45:47.001Z,98301.06
2022-09-23T17:48:48.673Z,98294.84
2022-09-23T17:51:51.748Z,98302.13
2022-09-23T17:54:55.160Z,98294.28
2022-09-23T17:57:56.661Z,98298.00
2022-09-23T18:00:58.699Z,98291.88
2022-09-23T18:04:01.203Z,98296.44
2022-09-23T18:07:04.725Z,98298.38
2022-09-23T18:10:07.023Z,98296.66
2022-09-23T18:13:10.922Z,98295.00
2022-09-23T18:16:12.591Z,98296.81
2022-09-23T18:19:15.236Z,98288.88
2022-09-23T18:22:18.198Z,98286.41
2022-09-23T18:25:38.098Z,98276.63
2022-09-23T18:28:40.474Z,98286.59
2022-09-23T18:31:44.297Z,98284.94
2022-09-23T18:34:48.260Z,98274.34
2022-09-23T18:37:51.094Z,98274.44
2022-09-23T18:40:55.677Z,98283.63
2022-09-23T18:43:57.645Z,98282.78
2022-09-23T18:46:59.421Z,98286.41
2022-09-23T18:50:19.633Z,98281.06
2022-09-23T18:53:27.322Z,98287.28
2022-09-23T18:56:29.799Z,98288.28
2022-09-23T18:59:33.640Z,98284.84
2022-09-23T19:02:35.233Z,98279.50
2022-09-23T19:05:36.795Z,98280.47
2022-09-23T19:08:40.144Z,98286.88
2022-09-23T19:11:41.822Z,98284.28
2022-09-23T19:14:44.902Z,98287.75
2022-09-23T19:17:47.062Z,98277.97
2022-09-23T19:20:49.429Z,98275.31
2022-09-23T19:23:53.637Z,98274.72
2022-09-23T19:26:58.436Z,98271.16
2022-09-23T19:30:00.124Z,98267.72
2022-09-23T19:33:01.741Z,98265.91
2022-09-23T19:36:07.059Z,98266.88
2022-09-23T19:39:14.896Z,98260.75
2022-09-23T19:42:17.039Z,98254.75
2022-09-23T19:45:18.856Z,98257.41
2022-09-23T19:48:20.354Z,98255.78
2022-09-23T19:51:22.530Z,98251.38
2022-09-23T19:54:27.533Z,98257.69
2022-09-23T19:57:33.469Z,98254.03
2022-09-23T20:00:35.144Z,98262.19
2022-09-23T20:03:36.773Z,98261.31
2022-09-23T20:06:38.938Z,98252.53
2022-09-23T20:09:41.826Z,98246.41
2022-09-23T20:12:44.059Z,98250.16
2022-09-23T20:15:46.543Z,98246.69
2022-09-23T20:18:51.891Z,98243.25
2022-09-23T20:22:13.353Z,98240.56
2022-09-23T20:25:16.361Z,98237.88
2022-09-23T20:28:17.884Z,98234.34
2022-09-23T20:31:25.854Z,98227.38
2022-09-23T20:34:30.079Z,98227.47
2022-09-23T20:37:33.160Z,98221.34
2022-09-23T20:40:36.985Z,98227.63
2022-09-23T20:43:39.996Z,98227.63
2022-09-23T20:46:48.477Z,98222.22
2022-09-23T20:49:50.356Z,98227.38
2022-09-23T20:52:53.195Z,98222.69
2022-09-23T20:55:57.550Z,98225.94
2022-09-23T20:59:03.757Z,98226.72
2022-09-23T21:02:06.119Z,98222.56
2022-09-23T21:05:08.409Z,98224.41
2022-09-23T21:08:10.197Z,98220.75
2022-09-23T21:11:16.814Z,98221.56
2022-09-23T21:14:21.596Z,98226.59
2022-09-23T21:17:23.153Z,98219.44
2022-09-23T21:20:24.803Z,98225.66
2022-09-23T21:23:27.197Z,98220.19
2022-09-23T21:26:30.533Z,98218.28
2022-09-23T21:29:32.282Z,98211.19
2022-09-23T21:32:33.823Z,98212.06
2022-09-23T21:35:35.484Z,98216.56
2022-09-23T21:38:37.378Z,98209.47
2022-09-23T21:41:42.669Z,98212.16
2022-09-23T21:44:44.585Z,98209.88
2022-09-23T21:47:46.512Z,98210.25
2022-09-23T21:50:54.054Z,98211.50
2022-09-23T21:53:56.959Z,98213.31
2022-09-23T21:57:00.578Z,98213.38
2022-09-23T22:00:05.019Z,98210.91
2022-09-23T22:03:06.594Z,98209.38
2022-09-23T22:06:09.778Z,98210.50
2022-09-23T22:09:12.785Z,98208.03
2022-09-23T22:12:15.898Z,98219.88
2022-09-23T22:15:22.507Z,98228.94
2022-09-23T22:18:26.050Z,98226.97
2022-09-23T22:21:29.298Z,98229.00
2022-09-23T22:24:30.690Z,98223.06
2022-09-23T22:27:53.644Z,98214.75
2022-09-23T22:31:16.875Z,98219.81
2022-09-23T22:34:47.460Z,98222.31
2022-09-23T22:37:42.063Z,98226.81
2022-09-23T22:40:43.725Z,98226.91
2022-09-23T22:43:53.974Z,98227.84
2022-09-23T22:46:57.522Z,98228.03
2022-09-23T22:50:03.045Z,98226.41
2022-09-23T22:53:06.355Z,98214.09
2022-09-23T22:56:08.279Z,98214.19
2022-09-23T22:59:12.086Z,98217.72
2022-09-23T23:02:14.759Z,98213.31
2022-09-23T23:05:16.749Z,98197.31
2022-09-23T23:08:18.301Z,98200.97
2022-09-23T23:11:21.426Z,98199.34
2022-09-23T23:14:25.856Z,98189.69
2022-09-23T23:17:27.484Z,98187.88
2022-09-23T23:20:29.018Z,98187.13
2022-09-23T23:23:36.683Z,98183.84
2022-09-23T23:26:38.430Z,98188.25
2022-09-23T23:29:41.423Z,98187.38
2022-09-23T23:32:43.056Z,98185.56
2022-09-23T23:35:49.989Z,98183.75
2022-09-23T23:38:51.799Z,98188.16
2022-09-23T23:41:54.275Z,98184.59
2022-09-23T23:44:57.108Z,98186.34
2022-09-23T23:47:58.626Z,98181.94
2022-09-23T23:51:00.950Z,98182.03
2022-09-23T23:54:02.514Z,98178.50
2022-09-23T23:57:07.250Z,98175.81
